Time;durP1;ratioP1;P1;durP2;ratioP2;P2;SDS_P1;SDS_P2;PMS_P1;PMS_P2;Temp;Humidity;BMP_temperature;BMP_pressure;BME280_temperature;BME280_humidity;BME280_pressure;Samples;Min_cycle;Max_cycle;Signal;HPM_P1;HPM_P2
2021/06/29 00:00:37;;;;;;;;;;;21.00;99.90;;;;;;5021151;28;19929;-79
2021/06/29 00:03:05;;;;;;;;;;;21.10;99.90;;;;;;5023221;28;20011;-79
2021/06/29 00:05:34;;;;;;;;;;;21.00;99.90;;;;;;5044019;28;19929;-79
2021/06/29 00:08:02;;;;;;;;;;;21.00;99.90;;;;;;5047575;28;19929;-79
2021/06/29 00:10:30;;;;;;;;;;;20.80;99.90;;;;;;5019067;28;20339;-80
2021/06/29 00:12:57;;;;;;;;;;;20.80;99.90;;;;;;5020895;28;19937;-79
2021/06/29 00:15:26;;;;;;;;;;;20.90;99.90;;;;;;5018550;28;19968;-79
2021/06/29 00:17:53;;;;;;;;;;;20.90;99.90;;;;;;5042921;28;21203;-79
2021/06/29 00:20:20;;;;;;;;;;;20.90;99.90;;;;;;5019267;28;19976;-79
2021/06/29 00:22:46;;;;;;;;;;;20.80;99.90;;;;;;5019873;28;19929;-79
2021/06/29 00:25:13;;;;;;;;;;;20.80;99.90;;;;;;5016567;28;19929;-79
2021/06/29 00:27:40;;;;;;;;;;;20.80;99.90;;;;;;5018348;28;19979;-79
2021/06/29 00:30:08;;;;;;;;;;;20.80;99.90;;;;;;5020817;28;20413;-79
2021/06/29 00:32:35;;;;;;;;;;;20.80;99.90;;;;;;5018909;28;19933;-80
2021/06/29 00:35:02;;;;;;;;;;;20.80;99.90;;;;;;5034984;28;19925;-80
2021/06/29 00:37:29;;;;;;;;;;;20.60;99.90;;;;;;5033266;28;19933;-80
2021/06/29 00:39:56;;;;;;;;;;;20.60;99.90;;;;;;5020773;28;19937;-80
2021/06/29 00:42:23;;;;;;;;;;;20.50;99.90;;;;;;5034478;28;19929;-81
2021/06/29 00:44:50;;;;;;;;;;;20.60;99.90;;;;;;5019846;28;20269;-80
2021/06/29 00:47:17;;;;;;;;;;;20.60;99.90;;;;;;5018243;28;20020;-80
2021/06/29 00:49:44;;;;;;;;;;;20.50;99.90;;;;;;5017984;28;19929;-81
2021/06/29 00:52:12;;;;;;;;;;;20.50;99.90;;;;;;5037485;28;19965;-80
2021/06/29 00:54:39;;;;;;;;;;;20.40;99.90;;;;;;5019837;28;20096;-81
2021/06/29 00:57:07;;;;;;;;;;;20.50;99.90;;;;;;5020243;28;20301;-80
2021/06/29 00:59:34;;;;;;;;;;;20.60;99.90;;;;;;5018873;28;19976;-80
2021/06/29 01:02:01;;;;;;;;;;;20.60;99.90;;;;;;5018522;28;20395;-80
2021/06/29 01:04:27;;;;;;;;;;;20.70;99.90;;;;;;5018773;28;19933;-79
2021/06/29 01:06:54;;;;;;;;;;;20.80;99.90;;;;;;5020047;28;20020;-79
2021/06/29 01:09:21;;;;;;;;;;;20.80;99.90;;;;;;5018795;28;19975;-79
2021/06/29 01:11:48;;;;;;;;;;;20.70;99.90;;;;;;5021392;28;20339;-79
2021/06/29 01:14:16;;;;;;;;;;;20.50;99.90;;;;;;5023732;28;19937;-79
2021/06/29 01:16:43;;;;;;;;;;;20.50;99.90;;;;;;5022694;28;20031;-79
2021/06/29 01:19:11;;;;;;;;;;;20.60;99.90;;;;;;5026436;28;19938;-80
2021/06/29 01:21:40;;;;;;;;;;;20.40;99.90;;;;;;5021554;28;20036;-79
2021/06/29 01:24:13;;;;;;;;;;;20.30;99.90;;;;;;5021976;28;20372;-79
2021/06/29 01:26:46;;;;;;;;;;;20.20;99.90;;;;;;5037711;28;19955;-79
2021/06/29 01:29:13;;;;;;;;;;;20.10;99.90;;;;;;5023279;28;19934;-79
2021/06/29 01:31:40;;;;;;;;;;;20.20;99.90;;;;;;5023916;28;19933;-80
2021/06/29 01:34:07;;;;;;;;;;;20.10;99.90;;;;;;5022764;28;19933;-80
2021/06/29 01:36:39;;;;;;;;;;;20.10;99.90;;;;;;5022935;28;19933;-80
2021/06/29 01:39:07;;;;;;;;;;;20.00;99.90;;;;;;5022573;28;19983;-80
2021/06/29 01:41:34;;;;;;;;;;;19.90;99.90;;;;;;5023999;28;19969;-80
2021/06/29 01:44:11;;;;;;;;;;;19.90;99.90;;;;;;5020675;28;19964;-80
2021/06/29 01:46:40;;;;;;;;;;;19.90;99.90;;;;;;5024145;28;20031;-81
2021/06/29 01:49:07;;;;;;;;;;;19.90;99.90;;;;;;5020432;28;19980;-79
2021/06/29 01:51:34;;;;;;;;;;;19.90;99.90;;;;;;5023678;28;20407;-80
2021/06/29 01:54:01;;;;;;;;;;;19.90;99.90;;;;;;5024683;28;19953;-80
2021/06/29 01:56:30;;;;;;;;;;;19.90;99.90;;;;;;5020017;28;19933;-79
2021/06/29 01:59:01;;;;;;;;;;;19.90;99.90;;;;;;5022892;28;20010;-80
2021/06/29 02:01:27;;;;;;;;;;;19.80;99.90;;;;;;5022592;28;20023;-79
2021/06/29 02:03:54;;;;;;;;;;;19.80;99.90;;;;;;5020885;28;20047;-79
2021/06/29 02:06:21;;;;;;;;;;;20.00;99.90;;;;;;5037220;28;19980;-79
2021/06/29 02:08:48;;;;;;;;;;;19.80;99.90;;;;;;5021508;28;20426;-79
2021/06/29 02:11:14;;;;;;;;;;;20.00;99.90;;;;;;5022917;28;19972;-79
2021/06/29 02:13:41;;;;;;;;;;;19.90;99.90;;;;;;5021489;28;20342;-79
2021/06/29 02:16:08;;;;;;;;;;;20.00;99.90;;;;;;5023167;28;19937;-79
2021/06/29 02:18:35;;;;;;;;;;;20.00;99.90;;;;;;5020562;28;19957;-79
2021/06/29 02:21:02;;;;;;;;;;;20.00;99.90;;;;;;5019858;28;19941;-79
2021/06/29 02:23:29;;;;;;;;;;;20.00;99.90;;;;;;5020828;28;20296;-80
2021/06/29 02:25:55;;;;;;;;;;;20.00;99.90;;;;;;5021333;28;19948;-80
2021/06/29 02:28:22;;;;;;;;;;;20.00;99.90;;;;;;5023551;28;19971;-80
2021/06/29 02:30:49;;;;;;;;;;;19.90;99.90;;;;;;5019885;28;20022;-80
2021/06/29 02:33:16;;;;;;;;;;;20.00;99.90;;;;;;5021273;28;20360;-79
2021/06/29 02:35:43;;;;;;;;;;;20.00;99.90;;;;;;5018789;28;20784;-79
2021/06/29 02:38:14;;;;;;;;;;;20.00;99.90;;;;;;5016179;28;19933;-79
2021/06/29 02:40:41;;;;;;;;;;;19.90;99.90;;;;;;5038059;28;19940;-79
2021/06/29 02:43:08;;;;;;;;;;;19.90;99.90;;;;;;5025693;28;19983;-79
2021/06/29 02:45:34;;;;;;;;;;;19.90;99.90;;;;;;5020728;28;20041;-79
2021/06/29 02:48:01;;;;;;;;;;;20.00;99.90;;;;;;5020906;28;20299;-79
2021/06/29 02:50:28;;;;;;;;;;;20.00;99.90;;;;;;5020404;28;20046;-79
2021/06/29 02:52:55;;;;;;;;;;;19.90;99.90;;;;;;5018496;28;20445;-80
2021/06/29 02:55:22;;;;;;;;;;;19.90;99.90;;;;;;5021878;28;19933;-80
2021/06/29 02:57:49;;;;;;;;;;;19.90;99.90;;;;;;5022433;28;19972;-79
2021/06/29 03:00:18;;;;;;;;;;;20.00;99.90;;;;;;5023129;28;19929;-80
2021/06/29 03:02:45;;;;;;;;;;;19.80;99.90;;;;;;5024287;28;19933;-80
2021/06/29 03:05:12;;;;;;;;;;;19.80;99.90;;;;;;5022333;28;19995;-80
2021/06/29 03:07:39;;;;;;;;;;;20.00;99.90;;;;;;5033259;28;19933;-80
2021/06/29 03:10:07;;;;;;;;;;;20.00;99.90;;;;;;5018986;28;20430;-80
2021/06/29 03:12:34;;;;;;;;;;;20.00;99.90;;;;;;5021981;28;19984;-80
2021/06/29 03:15:02;;;;;;;;;;;20.00;99.90;;;;;;5021231;28;20750;-80
2021/06/29 03:17:29;;;;;;;;;;;19.90;99.90;;;;;;5020703;28;19933;-79
2021/06/29 03:19:57;;;;;;;;;;;19.90;99.90;;;;;;5018617;28;19975;-80
2021/06/29 03:22:23;;;;;;;;;;;20.00;99.90;;;;;;5020684;28;19988;-80
2021/06/29 03:24:50;;;;;;;;;;;19.90;99.90;;;;;;5021462;28;20463;-80
2021/06/29 03:27:19;;;;;;;;;;;19.90;99.90;;;;;;5020021;28;19983;-80
2021/06/29 03:29:46;;;;;;;;;;;19.90;99.90;;;;;;5033955;28;19929;-79
2021/06/29 03:32:13;;;;;;;;;;;19.90;99.90;;;;;;5017724;28;19933;-78
2021/06/29 03:34:40;;;;;;;;;;;19.90;99.90;;;;;;5018686;28;19939;-79
2021/06/29 03:37:07;;;;;;;;;;;19.90;99.90;;;;;;5019934;28;19976;-79
2021/06/29 03:39:34;;;;;;;;;;;19.90;99.90;;;;;;5034703;28;19975;-79
2021/06/29 03:42:01;;;;;;;;;;;19.90;99.90;;;;;;5018167;28;20030;-79
2021/06/29 03:44:28;;;;;;;;;;;20.00;99.90;;;;;;5019175;28;19972;-79
2021/06/29 03:46:55;;;;;;;;;;;20.00;99.90;;;;;;5019740;28;19965;-78
2021/06/29 03:49:22;;;;;;;;;;;20.00;99.90;;;;;;5018669;28;19935;-79
2021/06/29 03:51:50;;;;;;;;;;;20.00;99.90;;;;;;5021761;28;19991;-79
2021/06/29 03:54:17;;;;;;;;;;;19.90;99.90;;;;;;5032840;28;19932;-79
2021/06/29 03:56:44;;;;;;;;;;;20.00;99.90;;;;;;5021094;28;19933;-78
2021/06/29 03:59:11;;;;;;;;;;;19.90;99.90;;;;;;5019954;28;20037;-78
2021/06/29 04:01:38;;;;;;;;;;;20.00;99.90;;;;;;5019944;28;20667;-79
2021/06/29 04:04:06;;;;;;;;;;;20.00;99.90;;;;;;5019795;28;19937;-79
2021/06/29 04:06:36;;;;;;;;;;;20.00;99.90;;;;;;5021529;28;19929;-79
2021/06/29 04:09:04;;;;;;;;;;;20.00;99.90;;;;;;5021488;28;19933;-78
2021/06/29 04:11:31;;;;;;;;;;;20.00;99.90;;;;;;5016134;28;19969;-79
2021/06/29 04:13:58;;;;;;;;;;;20.00;99.90;;;;;;5024398;28;20319;-79
2021/06/29 04:16:25;;;;;;;;;;;20.10;99.90;;;;;;5017497;28;19925;-79
2021/06/29 04:18:52;;;;;;;;;;;20.10;99.90;;;;;;5035037;28;19933;-79
2021/06/29 04:21:22;;;;;;;;;;;20.00;99.90;;;;;;5020181;28;19971;-79
2021/06/29 04:23:49;;;;;;;;;;;19.90;99.90;;;;;;5016015;28;19983;-80
2021/06/29 04:26:19;;;;;;;;;;;19.80;99.90;;;;;;5018662;28;19940;-81
2021/06/29 04:28:46;;;;;;;;;;;19.70;99.90;;;;;;5020801;28;19936;-81
2021/06/29 04:31:13;;;;;;;;;;;19.80;99.90;;;;;;5016960;28;19965;-78
2021/06/29 04:33:40;;;;;;;;;;;19.80;99.90;;;;;;5022786;28;20468;-79
2021/06/29 04:36:06;;;;;;;;;;;19.80;99.90;;;;;;5020300;28;20655;-79
2021/06/29 04:38:33;;;;;;;;;;;19.70;99.90;;;;;;5018868;28;19956;-78
2021/06/29 04:41:03;;;;;;;;;;;19.80;99.90;;;;;;5015044;28;19974;-79
2021/06/29 04:43:30;;;;;;;;;;;20.00;99.90;;;;;;5015629;28;20433;-78
2021/06/29 04:45:57;;;;;;;;;;;20.00;99.90;;;;;;5020582;28;19930;-79
2021/06/29 04:48:24;;;;;;;;;;;20.00;99.90;;;;;;5019205;28;19933;-79
2021/06/29 04:50:52;;;;;;;;;;;20.00;99.90;;;;;;5034104;28;19934;-79
2021/06/29 04:53:19;;;;;;;;;;;20.00;99.90;;;;;;5020144;28;20311;-79
2021/06/29 04:55:45;;;;;;;;;;;20.00;99.90;;;;;;5043545;28;19973;-80
2021/06/29 04:58:12;;;;;;;;;;;20.00;99.90;;;;;;5019271;28;20365;-80
2021/06/29 05:00:44;;;;;;;;;;;19.90;99.90;;;;;;5021125;28;19983;-79
2021/06/29 05:03:11;;;;;;;;;;;19.90;99.90;;;;;;5021258;28;20666;-80
2021/06/29 05:05:38;;;;;;;;;;;20.10;99.90;;;;;;5021429;28;20025;-80
2021/06/29 05:08:05;;;;;;;;;;;20.00;99.90;;;;;;5033616;28;19979;-80
2021/06/29 05:10:32;;;;;;;;;;;20.00;99.90;;;;;;5024657;28;19952;-80
2021/06/29 05:12:58;;;;;;;;;;;20.10;99.90;;;;;;5035377;28;19925;-80
2021/06/29 05:15:25;;;;;;;;;;;20.10;99.90;;;;;;5023221;28;19944;-79
2021/06/29 05:17:54;;;;;;;;;;;20.10;99.90;;;;;;5032807;28;19934;-79
2021/06/29 05:20:21;;;;;;;;;;;20.10;99.90;;;;;;5017953;28;20002;-80
2021/06/29 05:22:48;;;;;;;;;;;20.20;99.90;;;;;;5019102;28;19972;-80
2021/06/29 05:25:15;;;;;;;;;;;20.20;99.90;;;;;;5018925;28;19983;-80
2021/06/29 05:27:42;;;;;;;;;;;20.20;99.90;;;;;;5022448;28;19979;-80
2021/06/29 05:30:09;;;;;;;;;;;20.20;99.90;;;;;;5020605;28;19929;-79
2021/06/29 05:32:36;;;;;;;;;;;20.20;99.90;;;;;;5021042;28;19987;-79
2021/06/29 05:35:04;;;;;;;;;;;20.30;99.90;;;;;;5021199;28;19925;-80
2021/06/29 05:37:32;;;;;;;;;;;20.30;99.90;;;;;;5036754;28;19972;-80
2021/06/29 05:39:58;;;;;;;;;;;20.30;99.90;;;;;;5019673;28;19952;-80
2021/06/29 05:42:25;;;;;;;;;;;20.30;99.90;;;;;;5020046;28;19939;-80
2021/06/29 05:44:52;;;;;;;;;;;20.20;99.90;;;;;;5033947;28;19975;-79
2021/06/29 05:47:22;;;;;;;;;;;20.30;99.90;;;;;;5019933;28;20003;-80
2021/06/29 05:49:51;;;;;;;;;;;20.20;99.90;;;;;;5018924;28;21093;-80
2021/06/29 05:52:17;;;;;;;;;;;20.20;99.90;;;;;;5035776;28;19984;-79
2021/06/29 05:54:44;;;;;;;;;;;20.30;99.90;;;;;;5020323;28;19933;-79
2021/06/29 05:57:12;;;;;;;;;;;20.40;99.90;;;;;;5018285;28;19933;-79
2021/06/29 05:59:40;;;;;;;;;;;20.40;99.90;;;;;;5017005;28;20501;-79
2021/06/29 06:02:08;;;;;;;;;;;20.40;99.90;;;;;;5022280;28;19925;-79
2021/06/29 06:04:36;;;;;;;;;;;20.30;99.90;;;;;;5023521;28;19926;-80
2021/06/29 06:07:03;;;;;;;;;;;20.40;99.90;;;;;;5022390;28;19933;-80
2021/06/29 06:09:30;;;;;;;;;;;20.40;99.90;;;;;;5019883;28;20407;-79
2021/06/29 06:11:57;;;;;;;;;;;20.30;99.90;;;;;;5020806;28;20071;-78
2021/06/29 06:14:24;;;;;;;;;;;20.30;99.90;;;;;;5020248;28;19995;-79
2021/06/29 06:16:51;;;;;;;;;;;20.40;99.90;;;;;;5022546;28;20368;-79
2021/06/29 06:19:17;;;;;;;;;;;20.40;99.90;;;;;;5036099;28;20020;-80
2021/06/29 06:21:44;;;;;;;;;;;20.50;99.90;;;;;;5021299;28;19925;-79
2021/06/29 06:24:11;;;;;;;;;;;20.60;99.90;;;;;;5035354;28;19933;-79
2021/06/29 06:26:39;;;;;;;;;;;20.70;99.90;;;;;;5023856;28;19968;-79
2021/06/29 06:29:06;;;;;;;;;;;20.70;99.90;;;;;;5023673;28;19984;-79
2021/06/29 06:31:33;;;;;;;;;;;20.80;99.90;;;;;;5036184;28;19934;-79
2021/06/29 06:33:59;;;;;;;;;;;20.70;99.90;;;;;;5022804;28;19967;-79
2021/06/29 06:36:27;;;;;;;;;;;20.80;99.90;;;;;;5021216;28;20366;-79
2021/06/29 06:38:55;;;;;;;;;;;20.70;99.90;;;;;;5021844;28;20400;-79
2021/06/29 06:41:21;;;;;;;;;;;20.90;99.90;;;;;;5046846;28;19991;-79
2021/06/29 06:43:48;;;;;;;;;;;20.90;99.90;;;;;;5022799;28;19979;-78
2021/06/29 06:46:15;;;;;;;;;;;21.00;99.90;;;;;;5023538;28;19964;-79
2021/06/29 06:48:42;;;;;;;;;;;21.30;99.90;;;;;;5019606;28;19943;-79
2021/06/29 06:51:10;;;;;;;;;;;21.30;99.90;;;;;;5020261;28;19961;-79
2021/06/29 06:53:37;;;;;;;;;;;21.50;99.90;;;;;;5020536;28;20019;-79
2021/06/29 06:56:04;;;;;;;;;;;21.50;99.90;;;;;;5036630;28;19943;-79
2021/06/29 06:58:31;;;;;;;;;;;21.40;99.90;;;;;;5020215;28;20030;-79
2021/06/29 07:00:57;;;;;;;;;;;21.20;99.90;;;;;;5018923;28;19934;-79
2021/06/29 07:03:24;;;;;;;;;;;21.30;99.90;;;;;;5021610;28;19933;-77
2021/06/29 07:05:51;;;;;;;;;;;21.40;99.90;;;;;;5035995;28;20381;-76
2021/06/29 07:08:18;;;;;;;;;;;21.50;99.90;;;;;;5036937;28;20026;-80
2021/06/29 07:10:45;;;;;;;;;;;21.60;99.90;;;;;;5035983;28;19999;-79
2021/06/29 07:13:12;;;;;;;;;;;21.80;99.90;;;;;;5023855;28;20312;-79
2021/06/29 07:15:39;;;;;;;;;;;21.60;99.90;;;;;;5022265;28;20028;-80
2021/06/29 07:18:06;;;;;;;;;;;21.40;99.90;;;;;;5021796;28;20307;-80
2021/06/29 07:20:33;;;;;;;;;;;21.70;99.90;;;;;;5020306;28;19937;-80
2021/06/29 07:23:00;;;;;;;;;;;22.10;99.90;;;;;;5021498;28;20657;-80
2021/06/29 07:25:29;;;;;;;;;;;21.80;99.90;;;;;;5021107;28;20464;-78
2021/06/29 07:27:56;;;;;;;;;;;21.90;99.90;;;;;;5006340;28;19981;-79
2021/06/29 07:30:23;;;;;;;;;;;22.10;99.90;;;;;;5019847;28;19929;-79
2021/06/29 07:32:53;;;;;;;;;;;22.10;99.90;;;;;;5021697;28;19976;-79
2021/06/29 07:35:21;;;;;;;;;;;22.10;99.90;;;;;;5022193;28;19960;-79
2021/06/29 07:37:48;;;;;;;;;;;21.80;99.90;;;;;;5020486;28;19968;-79
2021/06/29 07:40:15;;;;;;;;;;;22.00;99.90;;;;;;5019944;28;20607;-79
2021/06/29 07:42:42;;;;;;;;;;;21.90;99.90;;;;;;5019761;28;19933;-79
2021/06/29 07:45:09;;;;;;;;;;;22.20;99.90;;;;;;5020431;28;19925;-79
2021/06/29 07:47:36;;;;;;;;;;;22.30;99.90;;;;;;5018167;28;19952;-79
2021/06/29 07:50:07;;;;;;;;;;;22.20;99.90;;;;;;5017720;28;20002;-79
2021/06/29 07:52:34;;;;;;;;;;;22.10;99.90;;;;;;5018616;28;19957;-79
2021/06/29 07:55:03;;;;;;;;;;;22.10;99.90;;;;;;5019641;28;19933;-79
2021/06/29 07:57:30;;;;;;;;;;;22.20;99.90;;;;;;5020095;28;19936;-78
2021/06/29 07:59:56;;;;;;;;;;;22.20;99.90;;;;;;5034752;28;19933;-78
2021/06/29 08:02:23;;;;;;;;;;;22.10;99.90;;;;;;5046591;28;19971;-79
2021/06/29 08:04:50;;;;;;;;;;;22.00;99.90;;;;;;5021981;28;19933;-79
2021/06/29 08:07:17;;;;;;;;;;;21.90;99.90;;;;;;5018600;28;19999;-78
2021/06/29 08:09:44;;;;;;;;;;;21.90;99.90;;;;;;5019730;28;20379;-78
2021/06/29 08:12:14;;;;;;;;;;;22.00;99.90;;;;;;5020542;28;19934;-79
2021/06/29 08:14:43;;;;;;;;;;;22.10;99.90;;;;;;5022003;28;19940;-79
2021/06/29 08:17:10;;;;;;;;;;;22.10;99.90;;;;;;5020879;28;19956;-79
2021/06/29 08:19:37;;;;;;;;;;;22.20;99.90;;;;;;5034935;28;20658;-80
2021/06/29 08:22:05;;;;;;;;;;;22.30;99.90;;;;;;5018244;28;20401;-80
2021/06/29 08:24:32;;;;;;;;;;;22.20;99.90;;;;;;5044914;28;19929;-80
2021/06/29 08:26:59;;;;;;;;;;;22.30;99.90;;;;;;5019680;28;19925;-79
2021/06/29 08:29:26;;;;;;;;;;;22.40;99.90;;;;;;5019875;28;20330;-82
2021/06/29 08:31:52;;;;;;;;;;;22.40;99.90;;;;;;5023402;28;19960;-82
2021/06/29 08:34:19;;;;;;;;;;;22.50;99.90;;;;;;5021725;28;19991;-82
2021/06/29 08:36:46;;;;;;;;;;;22.50;99.90;;;;;;5018844;28;20010;-81
2021/06/29 08:39:15;;;;;;;;;;;22.70;99.90;;;;;;5023262;28;19929;-82
2021/06/29 08:41:42;;;;;;;;;;;22.60;99.90;;;;;;5035306;28;19925;-81
2021/06/29 08:44:09;;;;;;;;;;;22.50;99.90;;;;;;5021384;28;20471;-80
2021/06/29 08:46:35;;;;;;;;;;;22.50;99.90;;;;;;5033125;28;19937;-81
2021/06/29 08:49:03;;;;;;;;;;;22.60;99.90;;;;;;5021596;28;19982;-83
2021/06/29 08:51:44;;;;;;;;;;;23.00;99.90;;;;;;5019264;28;19939;-80
2021/06/29 08:54:13;;;;;;;;;;;22.90;99.90;;;;;;5044181;28;19999;-79
2021/06/29 08:56:42;;;;;;;;;;;22.70;99.90;;;;;;5020445;28;20344;-79
2021/06/29 08:59:09;;;;;;;;;;;22.60;99.90;;;;;;5017283;28;19933;-80
2021/06/29 09:01:36;;;;;;;;;;;22.70;99.90;;;;;;5020704;28;19998;-80
2021/06/29 09:04:03;;;;;;;;;;;22.80;99.90;;;;;;5020389;28;19933;-82
2021/06/29 09:06:37;;;;;;;;;;;22.80;99.90;;;;;;5016740;28;20639;-76
2021/06/29 09:09:22;;;;;;;;;;;22.70;99.90;;;;;;5017198;28;20064;-76
2021/06/29 09:11:50;;;;;;;;;;;23.00;99.90;;;;;;5016534;28;19987;-76
2021/06/29 09:14:16;;;;;;;;;;;23.10;99.90;;;;;;5017639;28;19979;-76
2021/06/29 09:16:44;;;;;;;;;;;23.20;99.90;;;;;;5016159;28;19995;-76
2021/06/29 09:19:12;;;;;;;;;;;23.20;99.90;;;;;;5017693;28;19943;-75
2021/06/29 09:21:38;;;;;;;;;;;23.20;99.90;;;;;;5015945;28;20654;-75
2021/06/29 09:24:05;;;;;;;;;;;23.40;99.90;;;;;;5009239;28;20012;-74
2021/06/29 09:26:39;;;;;;;;;;;23.50;99.90;;;;;;5033826;28;19968;-75
2021/06/29 09:29:07;;;;;;;;;;;23.70;99.90;;;;;;5010540;28;19934;-74
2021/06/29 09:31:35;;;;;;;;;;;23.90;99.90;;;;;;5010937;28;20069;-77
2021/06/29 09:34:03;;;;;;;;;;;23.90;99.90;;;;;;5013561;28;19925;-80
2021/06/29 09:36:35;;;;;;;;;;;23.90;99.90;;;;;;5029424;28;20047;-77
2021/06/29 09:39:06;;;;;;;;;;;23.70;99.90;;;;;;5010328;28;20286;-76
2021/06/29 09:41:35;;;;;;;;;;;23.50;99.90;;;;;;5030780;28;19932;-75
2021/06/29 09:44:02;;;;;;;;;;;23.30;99.90;;;;;;5015729;28;19933;-75
2021/06/29 09:46:29;;;;;;;;;;;23.30;99.90;;;;;;5011692;28;19999;-76
2021/06/29 09:48:59;;;;;;;;;;;23.40;99.90;;;;;;5014334;28;20334;-75
2021/06/29 09:51:42;;;;;;;;;;;23.60;99.90;;;;;;5013271;28;20052;-75
2021/06/29 09:54:11;;;;;;;;;;;23.70;99.90;;;;;;5015176;28;19937;-75
2021/06/29 09:56:41;;;;;;;;;;;23.80;99.90;;;;;;5012289;28;19933;-75
2021/06/29 09:59:12;;;;;;;;;;;24.00;99.90;;;;;;5010557;28;19977;-75
2021/06/29 10:01:39;;;;;;;;;;;24.10;99.90;;;;;;5014366;28;19952;-74
2021/06/29 10:04:06;;;;;;;;;;;24.30;99.90;;;;;;5011846;28;21363;-75
2021/06/29 10:06:34;;;;;;;;;;;24.40;99.90;;;;;;5013669;28;19957;-75
2021/06/29 10:09:07;;;;;;;;;;;24.50;99.90;;;;;;5013265;28;19955;-75
2021/06/29 10:11:34;;;;;;;;;;;24.60;99.90;;;;;;5027944;28;19941;-75
2021/06/29 10:14:03;;;;;;;;;;;24.60;99.90;;;;;;5012195;28;19933;-75
2021/06/29 10:16:31;;;;;;;;;;;24.80;99.90;;;;;;5025790;28;19929;-75
2021/06/29 10:21:27;;;;;;;;;;;24.60;99.90;;;;;;5013863;28;19932;-75
2021/06/29 10:23:54;;;;;;;;;;;24.40;99.90;;;;;;5012687;28;20365;-75
2021/06/29 10:26:22;;;;;;;;;;;24.40;99.90;;;;;;5028973;28;20025;-74
2021/06/29 10:28:50;;;;;;;;;;;24.50;99.90;;;;;;5013163;28;19929;-74
2021/06/29 10:31:21;;;;;;;;;;;24.70;99.90;;;;;;5013192;28;20540;-74
2021/06/29 10:33:48;;;;;;;;;;;24.80;99.90;;;;;;5012267;28;20011;-74
2021/06/29 10:36:18;;;;;;;;;;;24.90;99.90;;;;;;5012539;28;19933;-74
2021/06/29 10:38:52;;;;;;;;;;;25.00;99.50;;;;;;5027891;28;20062;-74
2021/06/29 10:41:21;;;;;;;;;;;25.10;99.30;;;;;;5026677;28;20411;-75
2021/06/29 10:43:49;;;;;;;;;;;25.20;99.00;;;;;;5027524;28;19939;-74
2021/06/29 10:46:27;;;;;;;;;;;25.40;98.40;;;;;;5009498;28;19944;-75
2021/06/29 10:49:14;;;;;;;;;;;25.40;98.10;;;;;;5024383;28;19948;-75
2021/06/29 10:51:41;;;;;;;;;;;25.50;97.80;;;;;;5011590;28;19969;-77
2021/06/29 10:54:26;;;;;;;;;;;25.50;97.80;;;;;;5011303;28;19940;-75
2021/06/29 10:56:55;;;;;;;;;;;25.50;97.70;;;;;;5012957;28;19937;-75
2021/06/29 10:59:41;;;;;;;;;;;25.70;97.00;;;;;;5010947;28;19986;-75
2021/06/29 11:02:14;;;;;;;;;;;25.40;97.20;;;;;;5013041;28;19929;-75
2021/06/29 11:04:47;;;;;;;;;;;25.30;97.20;;;;;;5012059;28;19933;-74
2021/06/29 11:07:26;;;;;;;;;;;25.40;97.20;;;;;;5012380;28;20012;-74
2021/06/29 11:09:54;;;;;;;;;;;25.10;96.80;;;;;;5011710;28;20012;-75
2021/06/29 11:12:23;;;;;;;;;;;24.80;97.80;;;;;;5012743;28;20952;-74
2021/06/29 11:14:52;;;;;;;;;;;24.80;99.40;;;;;;5011169;28;19936;-75
2021/06/29 11:17:20;;;;;;;;;;;24.90;98.40;;;;;;5026591;28;20933;-74
2021/06/29 11:20:13;;;;;;;;;;;24.90;98.20;;;;;;5009776;28;19937;-74
2021/06/29 11:22:59;;;;;;;;;;;25.10;97.80;;;;;;4988444;28;19988;-76
2021/06/29 11:25:37;;;;;;;;;;;25.20;96.40;;;;;;5026742;28;19972;-74
2021/06/29 11:28:28;;;;;;;;;;;25.60;95.50;;;;;;5010971;28;20364;-74
2021/06/29 11:30:54;;;;;;;;;;;25.60;96.20;;;;;;5027554;28;19933;-75
2021/06/29 11:33:37;;;;;;;;;;;25.50;96.60;;;;;;5024139;28;20020;-75
2021/06/29 11:36:05;;;;;;;;;;;25.20;96.40;;;;;;5010489;28;19956;-75
2021/06/29 11:38:33;;;;;;;;;;;25.20;95.70;;;;;;5025165;28;19932;-75
2021/06/29 11:41:20;;;;;;;;;;;25.10;97.30;;;;;;5025118;28;19939;-75
2021/06/29 11:43:47;;;;;;;;;;;25.10;95.90;;;;;;4998908;28;20040;-75
2021/06/29 11:46:32;;;;;;;;;;;25.00;97.00;;;;;;5010712;28;19933;-75
2021/06/29 11:49:25;;;;;;;;;;;25.00;96.90;;;;;;5007943;28;19933;-75
2021/06/29 11:52:12;;;;;;;;;;;25.20;96.30;;;;;;5010707;28;20081;-75
2021/06/29 11:54:42;;;;;;;;;;;25.50;94.50;;;;;;5011657;28;20027;-75
2021/06/29 11:57:25;;;;;;;;;;;26.20;90.70;;;;;;5009065;28;20285;-75
2021/06/29 11:59:53;;;;;;;;;;;26.10;90.70;;;;;;5010584;28;19968;-75
2021/06/29 12:02:21;;;;;;;;;;;26.00;90.50;;;;;;5025429;28;19965;-75
2021/06/29 12:05:08;;;;;;;;;;;26.40;90.20;;;;;;5006850;28;19972;-75
2021/06/29 12:07:39;;;;;;;;;;;26.40;89.00;;;;;;5012901;28;19945;-75
2021/06/29 12:10:08;;;;;;;;;;;26.30;90.00;;;;;;5012610;28;20028;-75
2021/06/29 12:12:36;;;;;;;;;;;26.10;86.80;;;;;;5011523;28;20003;-75
2021/06/29 12:15:07;;;;;;;;;;;25.80;89.50;;;;;;5012159;28;20035;-74
2021/06/29 12:17:35;;;;;;;;;;;26.00;89.30;;;;;;5009997;28;19972;-74
2021/06/29 12:20:07;;;;;;;;;;;26.10;87.30;;;;;;5008382;28;19934;-74
2021/06/29 12:22:36;;;;;;;;;;;26.70;85.30;;;;;;5008244;28;20304;-75
2021/06/29 12:25:05;;;;;;;;;;;27.20;87.50;;;;;;5014412;28;19929;-75
2021/06/29 12:27:32;;;;;;;;;;;26.80;86.10;;;;;;5016909;28;19976;-75
2021/06/29 12:30:18;;;;;;;;;;;26.30;84.10;;;;;;5015955;28;19976;-74
2021/06/29 12:32:44;;;;;;;;;;;26.10;83.80;;;;;;5018344;28;20020;-75
2021/06/29 12:35:11;;;;;;;;;;;25.80;86.20;;;;;;5018303;28;19968;-74
2021/06/29 12:38:07;;;;;;;;;;;25.70;85.80;;;;;;5015744;28;19933;-74
2021/06/29 12:40:35;;;;;;;;;;;25.60;89.00;;;;;;5010511;28;19971;-75
2021/06/29 12:43:18;;;;;;;;;;;25.60;90.30;;;;;;5017448;28;20016;-74
2021/06/29 12:45:45;;;;;;;;;;;25.50;89.80;;;;;;5042037;28;20044;-75
2021/06/29 12:48:12;;;;;;;;;;;25.30;90.40;;;;;;5015946;28;19937;-75
2021/06/29 12:50:39;;;;;;;;;;;25.20;88.50;;;;;;5017347;28;19973;-75
2021/06/29 12:53:06;;;;;;;;;;;25.10;91.00;;;;;;5026882;28;19933;-75
2021/06/29 12:55:33;;;;;;;;;;;25.10;91.40;;;;;;5015531;28;20347;-75
2021/06/29 12:58:01;;;;;;;;;;;25.20;91.50;;;;;;5014333;28;20415;-75
2021/06/29 13:00:28;;;;;;;;;;;25.10;91.90;;;;;;5016528;28;19987;-75
2021/06/29 13:02:55;;;;;;;;;;;24.60;99.90;;;;;;5016475;28;19963;-75
2021/06/29 13:05:23;;;;;;;;;;;24.50;99.60;;;;;;5015861;28;20630;-75
2021/06/29 13:07:51;;;;;;;;;;;24.50;98.90;;;;;;5017792;28;20347;-76
2021/06/29 13:10:18;;;;;;;;;;;24.50;99.20;;;;;;5034388;28;19963;-75
2021/06/29 13:12:45;;;;;;;;;;;22.50;99.90;;;;;;5021610;28;19930;-75
2021/06/29 13:15:14;;;;;;;;;;;22.20;99.90;;;;;;5018746;28;19983;-74
2021/06/29 13:17:43;;;;;;;;;;;20.90;99.90;;;;;;5022579;28;19937;-76
2021/06/29 13:20:11;;;;;;;;;;;20.10;99.90;;;;;;5021657;28;20060;-75
2021/06/29 13:22:39;;;;;;;;;;;19.50;99.90;;;;;;5011129;28;20322;-75
2021/06/29 13:25:06;;;;;;;;;;;19.60;99.90;;;;;;5032951;28;19933;-79
2021/06/29 13:27:33;;;;;;;;;;;19.50;99.90;;;;;;5015313;28;19969;-75
2021/06/29 13:30:01;;;;;;;;;;;19.20;99.90;;;;;;5013230;28;19975;-76
2021/06/29 13:32:28;;;;;;;;;;;19.00;99.90;;;;;;5012594;28;19929;-79
2021/06/29 13:35:06;;;;;;;;;;;19.10;99.90;;;;;;5014958;28;19972;-75
2021/06/29 13:37:36;;;;;;;;;;;19.00;99.90;;;;;;5013997;28;20013;-80
2021/06/29 13:40:20;;;;;;;;;;;18.90;99.90;;;;;;5026270;28;19930;-80
2021/06/29 13:42:51;;;;;;;;;;;19.80;99.90;;;;;;5028836;28;20388;-80
2021/06/29 13:45:18;;;;;;;;;;;18.90;99.90;;;;;;5015506;28;19929;-80
2021/06/29 13:47:54;;;;;;;;;;;18.20;99.90;;;;;;5016455;28;20006;-79
2021/06/29 13:50:21;;;;;;;;;;;18.00;99.90;;;;;;5036177;28;20348;-80
2021/06/29 13:52:53;;;;;;;;;;;18.00;99.90;;;;;;5012375;28;19937;-81
2021/06/29 13:55:19;;;;;;;;;;;17.90;99.90;;;;;;5033083;28;19937;-79
2021/06/29 13:57:46;;;;;;;;;;;18.10;99.90;;;;;;5013812;28;19933;-80
2021/06/29 14:00:24;;;;;;;;;;;18.00;99.90;;;;;;5012531;28;20034;-81
2021/06/29 14:03:00;;;;;;;;;;;17.90;99.90;;;;;;5014219;28;19933;-78
2021/06/29 14:05:31;;;;;;;;;;;17.70;99.90;;;;;;5014190;28;19933;-79
2021/06/29 14:08:17;;;;;;;;;;;17.70;99.90;;;;;;5014410;28;19935;-80
2021/06/29 14:10:46;;;;;;;;;;;17.50;99.90;;;;;;5027931;28;19965;-79
2021/06/29 14:13:25;;;;;;;;;;;17.90;99.90;;;;;;5013825;28;20478;-79
2021/06/29 14:15:53;;;;;;;;;;;17.60;99.90;;;;;;5011874;28;20033;-80
2021/06/29 14:18:23;;;;;;;;;;;17.50;99.90;;;;;;5029922;28;20027;-80
2021/06/29 14:20:50;;;;;;;;;;;17.40;99.90;;;;;;5013421;28;19929;-79
2021/06/29 14:23:17;;;;;;;;;;;17.50;99.90;;;;;;5031106;28;19933;-79
2021/06/29 14:25:45;;;;;;;;;;;17.60;99.90;;;;;;5014556;28;19929;-79
2021/06/29 14:28:11;;;;;;;;;;;17.90;99.90;;;;;;5013890;28;19933;-79